createdAt,value
2022-10-17T00:02:11.795Z,101035.89
2022-10-17T00:06:14.833Z,101039.77
2022-10-17T00:10:16.893Z,101044.80
2022-10-17T00:14:18.795Z,101047.38
2022-10-17T00:18:20.816Z,101043.13
2022-10-17T00:22:22.649Z,101049.44
2022-10-17T00:26:24.604Z,101054.05
2022-10-17T00:30:26.689Z,101053.67
2022-10-17T00:34:30.499Z,101059.43
2022-10-17T00:38:32.353Z,101060.42
2022-10-17T00:42:35.034Z,101062.98
2022-10-17T00:46:38.550Z,101064.86
2022-10-17T00:50:47.602Z,101061.02
2022-10-17T00:54:55.467Z,101055.30
2022-10-17T00:58:57.612Z,101059.95
2022-10-17T01:03:00.052Z,101060.24
2022-10-17T01:07:01.892Z,101062.73
2022-10-17T01:11:06.715Z,101066.02
2022-10-17T01:15:13.335Z,101063.09
2022-10-17T01:19:37.099Z,101050.29
2022-10-17T01:24:02.160Z,101055.98
2022-10-17T01:28:18.241Z,101060.73
2022-10-17T01:32:29.041Z,101057.29
2022-10-17T01:36:43.777Z,101057.48
2022-10-17T01:41:10.535Z,101063.35
2022-10-17T01:45:18.769Z,101069.85
2022-10-17T01:49:24.325Z,101076.45
2022-10-17T01:53:33.378Z,101080.59
2022-10-17T01:57:44.702Z,101084.06
2022-10-17T02:01:49.085Z,101084.95
2022-10-17T02:05:51.269Z,101081.80
2022-10-17T02:09:53.128Z,101086.00
2022-10-17T02:14:22.653Z,101085.54
2022-10-17T02:18:30.370Z,101083.63
2022-10-17T02:22:56.469Z,101088.84
2022-10-17T02:27:16.561Z,101094.33
2022-10-17T02:31:31.179Z,101087.80
2022-10-17T02:35:38.175Z,101087.43
2022-10-17T02:39:42.502Z,101088.55
2022-10-17T02:43:49.667Z,101083.83
2022-10-17T02:48:26.334Z,101075.89
2022-10-17T02:52:34.436Z,101076.00
2022-10-17T02:56:46.075Z,101077.20
2022-10-17T03:00:48.749Z,101079.45
2022-10-17T03:04:50.773Z,101073.41
2022-10-17T03:08:52.614Z,101077.17
2022-10-17T03:12:55.509Z,101086.95
2022-10-17T03:16:58.507Z,101094.67
2022-10-17T03:21:01.244Z,101097.13
2022-10-17T03:25:03.478Z,101098.59
2022-10-17T03:29:05.503Z,101108.75
2022-10-17T03:33:07.774Z,101121.73
2022-10-17T03:37:09.785Z,101135.52
2022-10-17T03:41:12.497Z,101137.36
2022-10-17T03:45:14.605Z,101147.00
2022-10-17T03:49:16.981Z,101155.95
2022-10-17T03:53:19.276Z,101161.42
2022-10-17T03:57:21.255Z,101161.17
2022-10-17T04:01:23.702Z,101164.52
2022-10-17T04:05:25.912Z,101162.47
2022-10-17T04:09:28.526Z,101156.46
2022-10-17T04:13:56.231Z,101153.32
2022-10-17T04:17:58.523Z,101156.09
2022-10-17T04:22:02.640Z,101158.77
2022-10-17T04:26:06.546Z,101174.84
2022-10-17T04:30:09.479Z,101174.82
2022-10-17T04:34:13.692Z,101166.37
2022-10-17T04:38:15.800Z,101171.41
2022-10-17T04:42:18.940Z,101167.81
2022-10-17T04:46:21.388Z,101169.07
2022-10-17T04:50:23.705Z,101167.45
2022-10-17T04:54:45.160Z,101173.63
2022-10-17T04:58:48.733Z,101181.48
2022-10-17T05:02:50.912Z,101187.66
2022-10-17T05:06:52.843Z,101188.36
2022-10-17T05:11:25.629Z,101191.19
2022-10-17T05:15:28.065Z,101185.91
2022-10-17T05:19:30.365Z,101190.00
2022-10-17T05:23:32.435Z,101201.92
2022-10-17T05:27:34.716Z,101207.36
2022-10-17T05:31:36.647Z,101207.89
2022-10-17T05:35:38.944Z,101215.20
2022-10-17T05:39:41.207Z,101214.02
2022-10-17T05:43:44.759Z,101215.73
2022-10-17T05:47:48.049Z,101223.52
2022-10-17T05:51:51.437Z,101230.12
2022-10-17T05:56:01.546Z,101228.61
2022-10-17T06:00:05.591Z,101240.15
2022-10-17T06:04:16.812Z,101244.49
2022-10-17T06:08:19.044Z,101250.55
2022-10-17T06:12:21.245Z,101254.27
2022-10-17T06:16:24.020Z,101261.40
2022-10-17T06:20:26.069Z,101275.67
2022-10-17T06:24:28.260Z,101287.42
2022-10-17T06:28:30.449Z,101291.64
2022-10-17T06:32:33.073Z,101295.67
2022-10-17T06:36:35.009Z,101290.36
2022-10-17T06:40:36.904Z,101292.59
2022-10-17T06:44:39.997Z,101292.71
2022-10-17T06:49:05.810Z,101303.23
2022-10-17T06:53:17.888Z,101312.61
2022-10-17T06:57:25.833Z,101314.13
2022-10-17T07:01:54.867Z,101314.67
2022-10-17T07:06:00.168Z,101316.96
2022-10-17T07:10:03.963Z,101316.48
2022-10-17T07:14:06.241Z,101322.66
2022-10-17T07:18:08.644Z,101325.66
2022-10-17T07:22:11.367Z,101321.57
2022-10-17T07:26:17.668Z,101324.64
2022-10-17T07:30:21.319Z,101328.20
2022-10-17T07:34:30.887Z,101332.01
2022-10-17T07:38:33.391Z,101341.70
2022-10-17T07:46:42.109Z,101331.95
2022-10-17T07:50:44.392Z,101335.16
2022-10-17T07:54:46.274Z,101335.91
2022-10-17T07:58:48.236Z,101338.89
2022-10-17T08:02:50.236Z,101341.65
2022-10-17T08:06:56.380Z,101340.59
2022-10-17T08:11:06.184Z,101341.17
2022-10-17T08:15:09.737Z,101325.80
2022-10-17T08:19:12.563Z,101322.77
2022-10-17T08:23:14.416Z,101328.54
2022-10-17T08:27:20.993Z,101335.73
2022-10-17T08:31:23.107Z,101343.00
2022-10-17T08:35:25.067Z,101345.19
2022-10-17T08:39:27.045Z,101356.80
2022-10-17T08:43:57.192Z,101354.24
2022-10-17T08:48:02.008Z,101355.42
2022-10-17T08:52:22.656Z,101358.08
2022-10-17T08:56:47.566Z,101358.96
2022-10-17T09:01:11.970Z,101362.34
2022-10-17T09:05:26.473Z,101360.70
2022-10-17T09:09:45.231Z,101361.84
2022-10-17T09:13:49.706Z,101363.60
2022-10-17T09:18:08.321Z,101365.23
2022-10-17T09:22:16.850Z,101361.92
2022-10-17T09:26:18.885Z,101360.73
2022-10-17T09:30:40.139Z,101355.59
2022-10-17T09:34:43.263Z,101345.82
2022-10-17T09:38:52.369Z,101348.02
2022-10-17T09:42:54.618Z,101349.77
2022-10-17T09:47:14.907Z,101352.32
2022-10-17T09:51:25.591Z,101351.26
2022-10-17T09:55:39.864Z,101355.93
2022-10-17T10:00:04.301Z,101360.62
2022-10-17T10:04:17.265Z,101359.95
2022-10-17T10:08:19.527Z,101358.80
2022-10-17T10:12:32.378Z,101356.20
2022-10-17T10:16:42.950Z,101356.32
2022-10-17T10:20:46.425Z,101351.92
2022-10-17T10:25:13.156Z,101348.83
2022-10-17T10:29:35.835Z,101345.48
2022-10-17T10:33:45.884Z,101341.42
2022-10-17T10:37:55.715Z,101334.54
2022-10-17T10:41:58.077Z,101337.38
2022-10-17T10:46:00.406Z,101338.25
2022-10-17T10:50:17.277Z,101332.73
2022-10-17T10:54:25.980Z,101329.33
2022-10-17T10:58:42.151Z,101323.62
2022-10-17T11:03:11.960Z,101319.84
2022-10-17T11:07:33.291Z,101306.94
2022-10-17T11:11:40.204Z,101305.40
2022-10-17T11:15:52.911Z,101298.25
2022-10-17T11:19:55.919Z,101293.39
2022-10-17T11:24:27.688Z,101299.84
2022-10-17T11:28:30.606Z,101294.92
2022-10-17T11:32:45.796Z,101289.61
2022-10-17T11:36:52.601Z,101287.33
2022-10-17T11:40:58.590Z,101290.31
2022-10-17T11:45:13.890Z,101285.09
2022-10-17T11:49:23.599Z,101281.64
2022-10-17T11:53:29.888Z,101282.66
2022-10-17T11:57:50.236Z,101282.64
2022-10-17T12:02:04.154Z,101274.79
2022-10-17T12:06:30.933Z,101267.44
2022-10-17T12:10:45.206Z,101266.32
2022-10-17T12:14:47.350Z,101265.02
2022-10-17T12:19:24.249Z,101263.22
2022-10-17T12:23:31.400Z,101266.27
2022-10-17T12:27:45.600Z,101263.98
2022-10-17T12:31:47.615Z,101261.46
2022-10-17T12:35:51.340Z,101255.64
2022-10-17T12:39:53.397Z,101254.64
2022-10-17T12:43:55.374Z,101256.52
2022-10-17T12:47:57.228Z,101258.73
2022-10-17T12:52:25.339Z,101254.59
2022-10-17T12:56:47.355Z,101252.52
2022-10-17T13:01:23.813Z,101254.33
2022-10-17T13:05:33.665Z,101255.56
2022-10-17T13:09:44.212Z,101252.73
2022-10-17T13:13:48.852Z,101249.31
2022-10-17T13:17:59.935Z,101250.89
2022-10-17T13:22:07.255Z,101251.94
2022-10-17T13:26:22.243Z,101248.54
2022-10-17T13:30:29.304Z,101245.15
2022-10-17T13:34:33.935Z,101240.31
2022-10-17T13:38:38.965Z,101239.11
2022-10-17T13:42:44.360Z,101236.59
2022-10-17T13:46:46.831Z,101232.83
2022-10-17T13:50:52.644Z,101225.94
2022-10-17T13:54:55.453Z,101223.48
2022-10-17T13:59:04.437Z,101218.94
2022-10-17T14:03:06.344Z,101219.52
2022-10-17T14:07:23.897Z,101214.00
2022-10-17T14:11:39.914Z,101215.73
2022-10-17T14:15:45.981Z,101210.66
2022-10-17T14:20:14.175Z,101209.02
2022-10-17T14:24:23.181Z,101208.05
2022-10-17T14:28:25.125Z,101208.60
2022-10-17T14:32:30.545Z,101207.52
2022-10-17T14:36:43.626Z,101208.42
2022-10-17T14:41:04.847Z,101207.59
2022-10-17T14:45:25.214Z,101199.27
2022-10-17T14:49:37.632Z,101200.79
2022-10-17T14:53:40.443Z,101202.04
2022-10-17T14:57:45.944Z,101199.98
2022-10-17T15:01:48.988Z,101205.20
2022-10-17T15:05:52.759Z,101205.01
2022-10-17T15:09:54.756Z,101207.73
2022-10-17T15:13:56.821Z,101208.87
2022-10-17T15:17:59.507Z,101204.80
2022-10-17T15:22:01.400Z,101205.77
2022-10-17T15:26:03.522Z,101205.02
2022-10-17T15:30:21.959Z,101206.10
2022-10-17T15:34:23.981Z,101211.95
2022-10-17T15:38:25.908Z,101207.97
2022-10-17T15:42:29.966Z,101206.96
2022-10-17T15:46:35.903Z,101204.24
2022-10-17T15:50:37.812Z,101205.53
2022-10-17T15:54:40.379Z,101208.11
2022-10-17T15:58:42.288Z,101213.52
2022-10-17T16:02:45.137Z,101217.27
2022-10-17T16:06:47.111Z,101218.81
2022-10-17T16:10:49.866Z,101220.20
2022-10-17T16:14:51.679Z,101222.20
2022-10-17T16:18:54.183Z,101221.31
2022-10-17T16:22:59.427Z,101217.06
2022-10-17T16:27:01.260Z,101221.05
2022-10-17T16:31:03.205Z,101218.99
2022-10-17T16:35:07.016Z,101220.10
2022-10-17T16:39:08.934Z,101210.75
2022-10-17T16:43:12.776Z,101212.91
2022-10-17T16:47:15.269Z,101219.25
2022-10-17T16:51:18.771Z,101223.06
2022-10-17T16:55:20.982Z,101220.31
2022-10-17T16:59:24.765Z,101221.27
2022-10-17T17:03:26.759Z,101219.55
2022-10-17T17:07:29.369Z,101218.73
2022-10-17T17:11:32.316Z,101219.70
2022-10-17T17:15:34.310Z,101218.63
2022-10-17T17:19:36.229Z,101217.63
2022-10-17T17:23:40.808Z,101214.17
2022-10-17T17:27:42.822Z,101209.02
2022-10-17T17:31:44.760Z,101206.65
2022-10-17T17:35:47.019Z,101206.52
2022-10-17T17:39:48.844Z,101206.52
2022-10-17T17:43:51.524Z,101204.98
2022-10-17T17:47:54.867Z,101205.98
2022-10-17T17:51:56.946Z,101209.64
2022-10-17T17:56:07.717Z,101210.20
2022-10-17T18:00:10.358Z,101208.52
2022-10-17T18:04:12.867Z,101209.98
2022-10-17T18:08:14.717Z,101205.21
2022-10-17T18:12:16.564Z,101204.14
2022-10-17T18:16:18.477Z,101206.37
2022-10-17T18:20:24.476Z,101209.19
2022-10-17T18:24:26.292Z,101208.58
2022-10-17T18:28:29.159Z,101208.78
2022-10-17T18:32:32.868Z,101207.77
2022-10-17T18:36:35.355Z,101206.49
2022-10-17T18:40:39.987Z,101201.69
2022-10-17T18:44:41.872Z,101203.10
2022-10-17T18:48:45.431Z,101203.75
2022-10-17T18:52:48.407Z,101198.86
2022-10-17T18:56:53.688Z,101199.27
2022-10-17T19:01:02.685Z,101198.05
2022-10-17T19:05:04.863Z,101196.05
2022-10-17T19:09:09.600Z,101189.58
2022-10-17T19:13:11.452Z,101193.38
2022-10-17T19:17:13.272Z,101193.69
2022-10-17T19:21:19.197Z,101191.61
2022-10-17T19:25:23.320Z,101190.56
2022-10-17T19:29:27.519Z,101187.69
2022-10-17T19:33:31.710Z,101190.00
2022-10-17T19:37:33.922Z,101190.37
2022-10-17T19:41:36.121Z,101193.73
2022-10-17T19:45:37.983Z,101193.27
2022-10-17T19:49:39.880Z,101192.50
2022-10-17T19:53:42.491Z,101194.27
2022-10-17T19:57:44.281Z,101194.58
2022-10-17T20:01:46.438Z,101197.20
2022-10-17T20:05:48.520Z,101195.00
2022-10-17T20:09:50.408Z,101189.63
2022-10-17T20:13:53.467Z,101177.81
2022-10-17T20:17:56.253Z,101175.39
2022-10-17T20:21:58.161Z,101169.13
2022-10-17T20:26:08.630Z,101171.73
2022-10-17T20:30:21.363Z,101176.55
2022-10-17T20:34:23.525Z,101171.47
2022-10-17T20:38:25.416Z,101169.85
2022-10-17T20:42:28.373Z,101164.05
2022-10-17T20:46:36.812Z,101159.02
2022-10-17T20:50:39.802Z,101156.41
2022-10-17T20:54:41.736Z,101154.65
2022-10-17T20:58:43.885Z,101153.69
2022-10-17T21:02:46.020Z,101150.82
2022-10-17T21:06:48.738Z,101145.86
2022-10-17T21:10:50.636Z,101146.24
2022-10-17T21:14:52.493Z,101142.55
2022-10-17T21:18:55.460Z,101134.73
2022-10-17T21:23:00.042Z,101132.44
2022-10-17T21:27:01.919Z,101126.10
2022-10-17T21:31:14.131Z,101119.13
2022-10-17T21:35:16.493Z,101114.84
2022-10-17T21:39:18.859Z,101115.59
2022-10-17T21:43:21.119Z,101109.27
2022-10-17T21:47:25.548Z,101112.51
2022-10-17T21:51:29.625Z,101111.35
2022-10-17T21:55:31.759Z,101105.55
2022-10-17T21:59:35.120Z,101097.94
2022-10-17T22:03:42.711Z,101101.98
2022-10-17T22:07:47.904Z,101100.65
2022-10-17T22:11:54.104Z,101096.25
2022-10-17T22:16:10.083Z,101096.23
2022-10-17T22:20:11.984Z,101093.47
2022-10-17T22:24:15.757Z,101089.56
2022-10-17T22:28:17.948Z,101083.30
2022-10-17T22:32:22.555Z,101079.42
2022-10-17T22:36:24.649Z,101076.34
2022-10-17T22:40:26.526Z,101075.69
2022-10-17T22:44:28.343Z,101076.80
2022-10-17T22:48:30.306Z,101073.88
2022-10-17T22:52:32.406Z,101079.68
2022-10-17T22:56:34.528Z,101084.29
2022-10-17T23:00:38.494Z,101084.37
2022-10-17T23:04:41.308Z,101080.37
2022-10-17T23:08:43.617Z,101081.25
2022-10-17T23:12:45.441Z,101079.48
2022-10-17T23:16:47.284Z,101080.42
2022-10-17T23:20:49.400Z,101080.00
2022-10-17T23:24:51.566Z,101076.66
2022-10-17T23:28:54.341Z,101074.98
2022-10-17T23:32:56.271Z,101066.63
2022-10-17T23:36:58.365Z,101064.54
2022-10-17T23:41:00.357Z,101065.61
2022-10-17T23:45:03.382Z,101065.83
2022-10-17T23:49:06.100Z,101059.77
2022-10-17T23:53:08.128Z,101060.77
2022-10-17T23:57:10.216Z,101061.17
